createdAt,value
2023-11-23T00:00:36.517Z,-0.73
2023-11-23T00:02:38.539Z,-0.88
2023-11-23T00:04:40.070Z,-0.62
2023-11-23T00:06:41.506Z,-1.02
2023-11-23T00:08:43.168Z,-0.93
2023-11-23T00:10:44.622Z,-0.79
2023-11-23T00:12:46.338Z,-1.05
2023-11-23T00:14:47.807Z,-0.67
2023-11-23T00:16:49.358Z,-0.89
2023-11-23T00:18:51.223Z,-0.86
2023-11-23T00:20:52.781Z,-0.84
2023-11-23T00:22:56.405Z,-0.75
2023-11-23T00:24:59.863Z,-0.94
2023-11-23T00:27:01.433Z,-1.10
2023-11-23T00:29:02.910Z,-0.82
2023-11-23T00:31:04.691Z,-1.13
2023-11-23T00:33:06.149Z,-0.72
2023-11-23T00:35:08.261Z,-0.71
2023-11-23T00:37:09.862Z,-0.63
2023-11-23T00:39:11.338Z,-0.67
2023-11-23T00:41:12.768Z,-0.73
2023-11-23T00:43:14.562Z,-0.76
2023-11-23T00:45:16.161Z,-0.87
2023-11-23T00:47:17.735Z,-0.57
2023-11-23T00:49:19.521Z,-0.42
2023-11-23T00:51:20.949Z,-0.54
2023-11-23T00:53:22.797Z,-0.70
2023-11-23T00:55:24.725Z,-0.52
2023-11-23T00:57:26.164Z,-0.73
2023-11-23T00:59:27.678Z,-0.46
2023-11-23T01:01:29.593Z,-0.51
2023-11-23T01:03:31.196Z,-0.36
2023-11-23T01:05:32.845Z,-0.36
2023-11-23T01:07:34.338Z,-0.57
2023-11-23T01:09:35.776Z,-0.37
2023-11-23T01:11:37.304Z,-0.58
2023-11-23T01:13:39.500Z,-0.55
2023-11-23T01:15:41.021Z,-0.57
2023-11-23T01:17:43.317Z,-0.79
2023-11-23T01:19:44.780Z,-0.57
2023-11-23T01:21:46.279Z,-0.43
2023-11-23T01:23:47.806Z,-0.62
2023-11-23T01:25:49.238Z,-0.66
2023-11-23T01:27:50.677Z,-0.40
2023-11-23T01:29:52.412Z,-0.68
2023-11-23T01:31:53.910Z,-0.55
2023-11-23T01:33:55.452Z,-0.48
2023-11-23T01:35:57.255Z,-0.43
2023-11-23T01:37:58.702Z,-0.42
2023-11-23T01:40:00.362Z,-0.29
2023-11-23T01:42:02.344Z,-0.27
2023-11-23T01:44:04.017Z,-0.12
2023-11-23T01:46:06.225Z,-0.28
2023-11-23T01:48:07.850Z,-0.36
2023-11-23T01:50:12.081Z,-0.51
2023-11-23T01:52:15.537Z,-0.67
2023-11-23T01:54:17.509Z,-0.17
2023-11-23T01:56:20.756Z,-0.24
2023-11-23T01:58:22.337Z,-0.41
2023-11-23T02:00:24.408Z,-0.22
2023-11-23T02:02:30.420Z,-0.13
2023-11-23T02:04:32.198Z,-0.19
2023-11-23T02:06:33.652Z,0.01
2023-11-23T02:08:36.037Z,-0.20
2023-11-23T02:10:38.280Z,-0.28
2023-11-23T02:12:39.773Z,-0.27
2023-11-23T02:14:41.492Z,0.04
2023-11-23T02:16:43.115Z,-0.04
2023-11-23T02:18:44.578Z,-0.34
2023-11-23T02:20:46.232Z,-0.30
2023-11-23T02:22:47.902Z,-0.16
2023-11-23T02:24:49.419Z,-0.13
2023-11-23T02:26:51.009Z,0.08
2023-11-23T02:28:52.546Z,-0.05
2023-11-23T02:30:54.040Z,-0.08
2023-11-23T02:32:56.011Z,-0.18
2023-11-23T02:34:57.467Z,0.34
2023-11-23T02:36:58.900Z,0.03
2023-11-23T02:39:00.811Z,0.00
2023-11-23T02:41:02.295Z,0.13
2023-11-23T02:43:07.181Z,-0.02
2023-11-23T02:45:09.335Z,-0.06
2023-11-23T02:47:10.774Z,-0.39
2023-11-23T02:49:12.255Z,-0.18
2023-11-23T02:51:13.948Z,-0.27
2023-11-23T02:53:15.399Z,-0.35
2023-11-23T02:55:16.867Z,-0.12
2023-11-23T02:57:18.958Z,-0.09
2023-11-23T02:59:20.470Z,-0.23
2023-11-23T03:01:22.001Z,-0.17
2023-11-23T03:03:23.703Z,-0.07
2023-11-23T03:05:25.179Z,-0.06
2023-11-23T03:07:26.607Z,0.16
2023-11-23T03:09:28.570Z,0.23
2023-11-23T03:11:30.087Z,0.22
2023-11-23T03:13:31.621Z,-0.13
2023-11-23T03:15:33.234Z,0.09
2023-11-23T03:17:34.721Z,0.17
2023-11-23T03:19:36.423Z,0.12
2023-11-23T03:21:38.164Z,0.15
2023-11-23T03:23:42.371Z,0.23
2023-11-23T03:25:43.868Z,0.24
2023-11-23T03:27:45.460Z,0.41
2023-11-23T03:29:46.913Z,0.28
2023-11-23T03:31:48.357Z,0.37
2023-11-23T03:33:50.153Z,0.14
2023-11-23T03:35:51.644Z,0.29
2023-11-23T03:37:53.098Z,0.36
2023-11-23T03:39:58.537Z,0.06
2023-11-23T03:41:59.973Z,0.21
2023-11-23T03:44:01.484Z,0.34
2023-11-23T03:46:03.282Z,0.23
2023-11-23T03:48:05.151Z,0.25
2023-11-23T03:50:07.147Z,0.33
2023-11-23T03:52:08.896Z,0.18
2023-11-23T03:54:10.424Z,0.36
2023-11-23T03:56:15.131Z,0.32
2023-11-23T03:58:16.740Z,0.10
2023-11-23T04:00:18.447Z,0.43
2023-11-23T04:02:20.014Z,0.20
2023-11-23T04:04:22.056Z,0.31
2023-11-23T04:06:23.555Z,0.17
2023-11-23T04:08:25.033Z,0.09
2023-11-23T04:10:26.650Z,0.41
2023-11-23T04:12:28.090Z,0.32
2023-11-23T04:14:29.562Z,0.32
2023-11-23T04:16:31.265Z,0.43
2023-11-23T04:18:32.751Z,0.20
2023-11-23T04:20:34.333Z,0.51
2023-11-23T04:22:35.779Z,0.42
2023-11-23T04:24:39.654Z,0.25
2023-11-23T04:26:44.230Z,0.24
2023-11-23T04:28:45.709Z,0.32
2023-11-23T04:30:47.136Z,0.43
2023-11-23T04:32:48.803Z,0.37
2023-11-23T04:34:50.381Z,0.35
2023-11-23T04:36:51.811Z,0.36
2023-11-23T04:38:53.396Z,0.37
2023-11-23T04:40:54.905Z,0.31
2023-11-23T04:42:56.338Z,0.51
2023-11-23T04:44:58.253Z,0.61
2023-11-23T04:46:59.850Z,0.54
2023-11-23T04:49:01.288Z,0.57
2023-11-23T04:51:02.909Z,0.47
2023-11-23T04:53:04.867Z,0.61
2023-11-23T04:55:06.727Z,0.69
2023-11-23T04:57:08.401Z,0.74
2023-11-23T04:59:10.149Z,0.68
2023-11-23T05:01:11.636Z,0.75
2023-11-23T05:03:13.280Z,0.65
2023-11-23T05:05:14.912Z,0.91
2023-11-23T05:07:16.420Z,0.65
2023-11-23T05:09:18.251Z,0.83
2023-11-23T05:11:19.811Z,0.71
2023-11-23T05:13:21.242Z,0.61
2023-11-23T05:15:22.845Z,0.51
2023-11-23T05:17:24.368Z,0.57
2023-11-23T05:19:35.938Z,0.57
2023-11-23T05:21:43.756Z,0.62
2023-11-23T05:23:45.585Z,0.54
2023-11-23T05:25:47.031Z,0.45
2023-11-23T05:27:48.575Z,0.71
2023-11-23T05:29:51.784Z,0.82
2023-11-23T05:31:53.726Z,0.73
2023-11-23T05:33:55.364Z,0.68
2023-11-23T05:35:56.994Z,0.71
2023-11-23T05:37:58.880Z,0.71
2023-11-23T05:40:00.584Z,0.58
2023-11-23T05:42:02.514Z,0.70
2023-11-23T05:44:04.095Z,0.67
2023-11-23T05:46:05.825Z,0.68
2023-11-23T05:48:07.587Z,0.84
2023-11-23T05:50:09.594Z,0.80
2023-11-23T05:52:11.589Z,0.80
2023-11-23T05:54:13.162Z,0.72
2023-11-23T05:56:14.605Z,0.89
2023-11-23T05:58:16.290Z,0.85
2023-11-23T06:00:18.313Z,0.98
2023-11-23T06:02:20.338Z,0.68
2023-11-23T06:04:22.475Z,0.63
2023-11-23T06:06:24.754Z,0.79
2023-11-23T06:08:28.103Z,0.84
2023-11-23T06:10:29.697Z,0.87
2023-11-23T06:12:31.476Z,0.88
2023-11-23T06:14:33.368Z,0.84
2023-11-23T06:16:35.248Z,0.85
2023-11-23T06:18:37.033Z,0.84
2023-11-23T06:20:38.513Z,0.80
2023-11-23T06:22:40.144Z,0.89
2023-11-23T06:24:42.016Z,1.03
2023-11-23T06:26:43.684Z,0.96
2023-11-23T06:28:45.338Z,1.04
2023-11-23T06:30:47.948Z,1.01
2023-11-23T06:32:49.457Z,0.97
2023-11-23T06:34:51.285Z,1.05
2023-11-23T06:36:53.199Z,1.22
2023-11-23T06:38:54.651Z,1.10
2023-11-23T06:40:56.218Z,1.00
2023-11-23T06:42:57.919Z,1.15
2023-11-23T06:44:59.562Z,1.06
2023-11-23T06:47:01.260Z,1.12
2023-11-23T06:49:05.013Z,1.04
2023-11-23T06:51:08.643Z,1.17
2023-11-23T06:53:10.459Z,1.18
2023-11-23T06:55:12.091Z,1.26
2023-11-23T06:57:13.641Z,1.22
2023-11-23T06:59:15.259Z,1.38
2023-11-23T07:01:17.275Z,1.27
2023-11-23T07:03:18.927Z,1.33
2023-11-23T07:05:20.765Z,1.19
2023-11-23T07:07:22.199Z,1.31
2023-11-23T07:09:23.805Z,1.29
2023-11-23T07:11:25.564Z,1.28
2023-11-23T07:13:27.815Z,1.38
2023-11-23T07:15:29.390Z,1.29
2023-11-23T07:17:31.012Z,1.31
2023-11-23T07:19:32.785Z,1.33
2023-11-23T07:21:34.251Z,1.35
2023-11-23T07:23:35.962Z,1.48
2023-11-23T07:25:37.725Z,1.42
2023-11-23T07:27:39.326Z,1.51
2023-11-23T07:29:41.253Z,1.31
2023-11-23T07:31:45.000Z,1.50
2023-11-23T07:33:46.634Z,1.58
2023-11-23T07:35:49.393Z,1.64
2023-11-23T07:37:51.121Z,1.54
2023-11-23T07:39:52.608Z,1.41
2023-11-23T07:41:54.270Z,1.46
2023-11-23T07:43:55.868Z,1.29
2023-11-23T07:45:57.300Z,1.65
2023-11-23T07:47:59.035Z,1.79
2023-11-23T07:50:00.638Z,1.70
2023-11-23T07:52:02.114Z,1.73
2023-11-23T07:54:04.013Z,1.72
2023-11-23T07:56:05.980Z,1.62
2023-11-23T07:58:07.494Z,1.87
2023-11-23T08:00:09.801Z,1.77
2023-11-23T08:02:11.697Z,1.91
2023-11-23T08:04:13.415Z,1.82
2023-11-23T08:06:15.117Z,1.93
2023-11-23T08:08:17.123Z,1.95
2023-11-23T08:10:18.676Z,1.93
2023-11-23T08:12:20.360Z,1.87
2023-11-23T08:14:21.875Z,2.02
2023-11-23T08:16:23.334Z,1.97
2023-11-23T08:18:32.863Z,1.97
2023-11-23T08:20:43.015Z,2.03
2023-11-23T08:22:44.475Z,2.09
2023-11-23T08:24:46.393Z,2.05
2023-11-23T08:26:47.967Z,2.23
2023-11-23T08:28:49.398Z,2.25
2023-11-23T08:30:51.225Z,2.11
2023-11-23T08:32:53.005Z,2.16
2023-11-23T08:34:54.507Z,2.28
2023-11-23T08:36:56.055Z,2.29
2023-11-23T08:38:57.600Z,2.26
2023-11-23T08:40:59.148Z,2.38
2023-11-23T08:43:00.795Z,2.44
2023-11-23T08:45:02.686Z,2.32
2023-11-23T08:47:04.683Z,2.41
2023-11-23T08:49:06.516Z,2.53
2023-11-23T08:51:08.261Z,2.58
2023-11-23T08:53:09.709Z,2.74
2023-11-23T08:55:11.301Z,2.65
2023-11-23T08:57:12.995Z,2.57
2023-11-23T08:59:14.430Z,2.81
2023-11-23T09:01:16.090Z,2.47
2023-11-23T09:03:17.779Z,2.67
2023-11-23T09:05:19.444Z,2.79
2023-11-23T09:07:21.029Z,2.81
2023-11-23T09:09:22.638Z,2.87
2023-11-23T09:11:24.083Z,3.00
2023-11-23T09:13:25.585Z,2.86
2023-11-23T09:15:27.204Z,2.80
2023-11-23T09:17:28.651Z,2.64
2023-11-23T09:19:30.315Z,2.82
2023-11-23T09:21:31.908Z,2.89
2023-11-23T09:23:33.412Z,2.86
2023-11-23T09:25:35.378Z,2.87
2023-11-23T09:27:37.382Z,3.01
2023-11-23T09:29:38.885Z,3.07
2023-11-23T09:31:40.459Z,2.90
2023-11-23T09:33:42.094Z,3.09
2023-11-23T09:35:43.734Z,3.12
2023-11-23T09:37:45.908Z,3.06
2023-11-23T09:39:47.536Z,3.33
2023-11-23T09:41:49.236Z,3.34
2023-11-23T09:43:51.369Z,3.30
2023-11-23T09:45:53.643Z,3.50
2023-11-23T09:47:57.211Z,3.52
2023-11-23T09:49:59.921Z,3.62
2023-11-23T09:52:01.533Z,3.51
2023-11-23T09:54:04.704Z,3.59
2023-11-23T09:56:06.623Z,3.50
2023-11-23T09:58:08.184Z,3.57
2023-11-23T10:00:10.131Z,3.70
2023-11-23T10:02:12.739Z,3.87
2023-11-23T10:04:15.142Z,3.77
2023-11-23T10:06:16.746Z,3.79
2023-11-23T10:08:18.617Z,3.73
2023-11-23T10:10:20.807Z,3.78
2023-11-23T10:12:22.276Z,3.92
2023-11-23T10:14:24.086Z,3.77
2023-11-23T10:16:25.618Z,4.04
2023-11-23T10:18:41.022Z,4.07
2023-11-23T10:20:46.860Z,4.05
2023-11-23T10:22:50.080Z,4.15
2023-11-23T10:24:51.677Z,4.06
2023-11-23T10:26:53.414Z,4.08
2023-11-23T10:28:54.939Z,4.16
2023-11-23T10:30:56.389Z,4.24
2023-11-23T10:32:59.245Z,4.31
2023-11-23T10:35:07.046Z,4.22
2023-11-23T10:37:09.723Z,4.28
2023-11-23T10:39:12.969Z,4.45
2023-11-23T10:41:15.452Z,4.43
2023-11-23T10:43:17.078Z,4.41
2023-11-23T10:45:22.805Z,4.53
2023-11-23T10:47:27.426Z,4.64
2023-11-23T10:49:32.604Z,4.64
2023-11-23T10:51:34.811Z,4.63
2023-11-23T10:53:37.274Z,4.72
2023-11-23T10:55:38.708Z,4.75
2023-11-23T10:57:47.237Z,4.79
2023-11-23T10:59:50.246Z,4.73
2023-11-23T11:01:55.627Z,4.76
2023-11-23T11:03:58.057Z,4.89
2023-11-23T11:06:00.526Z,5.02
2023-11-23T11:08:05.737Z,5.05
2023-11-23T11:10:09.163Z,5.09
2023-11-23T11:12:10.715Z,5.17
2023-11-23T11:14:12.557Z,5.15
2023-11-23T11:16:15.303Z,5.24
2023-11-23T11:18:21.746Z,5.11
2023-11-23T11:20:26.966Z,5.28
2023-11-23T11:22:28.561Z,5.29
2023-11-23T11:24:30.296Z,5.38
2023-11-23T11:26:34.760Z,5.32
2023-11-23T11:28:40.778Z,5.60
2023-11-23T11:30:44.731Z,5.63
2023-11-23T11:32:46.394Z,5.50
2023-11-23T11:34:47.996Z,5.51
2023-11-23T11:36:57.324Z,5.65
2023-11-23T11:39:00.797Z,5.61
2023-11-23T11:41:03.548Z,5.84
2023-11-23T11:43:07.938Z,5.78
2023-11-23T11:45:10.405Z,5.85
2023-11-23T11:47:12.438Z,5.82
2023-11-23T11:49:14.088Z,5.87
2023-11-23T11:51:15.677Z,5.87
2023-11-23T11:53:19.791Z,5.69
2023-11-23T11:55:21.498Z,5.89
2023-11-23T11:57:22.988Z,5.97
2023-11-23T11:59:28.909Z,5.92
2023-11-23T12:01:32.115Z,5.94
2023-11-23T12:03:33.758Z,6.02
2023-11-23T12:05:35.289Z,6.07
2023-11-23T12:07:36.840Z,5.99
2023-11-23T12:09:41.985Z,5.96
2023-11-23T12:11:48.078Z,6.15
2023-11-23T12:13:52.927Z,6.16
2023-11-23T12:15:54.454Z,6.04
2023-11-23T12:17:56.061Z,6.19
2023-11-23T12:19:57.704Z,6.10
2023-11-23T12:21:59.190Z,6.06
2023-11-23T12:24:00.757Z,6.08
2023-11-23T12:26:02.470Z,6.16
2023-11-23T12:28:08.882Z,6.12
2023-11-23T12:30:10.959Z,6.20
2023-11-23T12:32:12.611Z,6.30
2023-11-23T12:34:14.031Z,6.22
2023-11-23T12:36:15.611Z,6.23
2023-11-23T12:38:17.344Z,6.26
2023-11-23T12:40:18.957Z,6.29
2023-11-23T12:42:20.837Z,6.33
2023-11-23T12:44:23.291Z,6.44
2023-11-23T12:46:24.837Z,6.37
2023-11-23T12:48:26.557Z,6.38
2023-11-23T12:50:28.317Z,6.52
2023-11-23T12:52:29.777Z,6.48
2023-11-23T12:54:31.817Z,6.54
2023-11-23T12:56:34.398Z,6.66
2023-11-23T12:58:36.657Z,6.70
2023-11-23T13:00:39.312Z,6.72
2023-11-23T13:02:41.430Z,6.77
2023-11-23T13:04:42.944Z,6.76
2023-11-23T13:06:44.883Z,6.68
2023-11-23T13:08:46.599Z,6.86
2023-11-23T13:10:48.214Z,6.88
2023-11-23T13:12:49.932Z,6.78
2023-11-23T13:14:51.755Z,6.84
2023-11-23T13:16:53.227Z,6.83
2023-11-23T13:19:10.759Z,6.82
2023-11-23T13:21:16.394Z,6.94
2023-11-23T13:23:17.896Z,6.84
2023-11-23T13:25:19.661Z,6.81
2023-11-23T13:27:21.704Z,6.82
2023-11-23T13:29:23.154Z,6.99
2023-11-23T13:31:25.037Z,6.97
2023-11-23T13:33:26.701Z,7.15
2023-11-23T13:35:28.397Z,6.97
2023-11-23T13:37:30.144Z,6.98
2023-11-23T13:39:31.748Z,7.05
2023-11-23T13:41:33.260Z,6.87
2023-11-23T13:43:34.875Z,6.72
2023-11-23T13:45:36.528Z,6.96
2023-11-23T13:47:38.454Z,7.00
2023-11-23T13:49:41.407Z,7.00
2023-11-23T13:51:43.249Z,6.99
2023-11-23T13:53:45.495Z,6.93
2023-11-23T13:55:47.556Z,7.10
2023-11-23T13:57:49.297Z,7.00
2023-11-23T13:59:50.741Z,7.26
2023-11-23T14:01:52.425Z,7.22
2023-11-23T14:03:54.326Z,7.12
2023-11-23T14:05:55.894Z,7.06
2023-11-23T14:07:57.689Z,7.14
2023-11-23T14:09:59.302Z,7.11
2023-11-23T14:12:00.732Z,7.26
2023-11-23T14:14:02.461Z,7.18
2023-11-23T14:16:04.474Z,7.23
2023-11-23T14:18:06.549Z,7.08
2023-11-23T14:20:08.892Z,7.13
2023-11-23T14:22:10.547Z,7.26
2023-11-23T14:24:11.987Z,7.11
2023-11-23T14:26:13.670Z,7.11
2023-11-23T14:28:15.221Z,7.07
2023-11-23T14:30:16.687Z,7.18
2023-11-23T14:32:18.257Z,7.18
2023-11-23T14:34:20.017Z,6.99
2023-11-23T14:36:24.392Z,6.94
2023-11-23T14:38:25.945Z,7.13
2023-11-23T14:40:27.573Z,6.98
2023-11-23T14:42:38.855Z,7.12
2023-11-23T14:44:43.270Z,7.04
2023-11-23T14:46:44.929Z,6.95
2023-11-23T14:48:46.555Z,6.96
2023-11-23T14:50:48.343Z,6.77
2023-11-23T14:52:49.965Z,6.90
2023-11-23T14:54:51.430Z,6.96
2023-11-23T14:56:53.164Z,6.94
2023-11-23T14:58:54.738Z,6.96
2023-11-23T15:00:56.357Z,6.84
2023-11-23T15:02:59.314Z,6.91
2023-11-23T15:05:00.852Z,6.83
2023-11-23T15:07:02.348Z,6.79
2023-11-23T15:09:03.984Z,7.11
2023-11-23T15:11:05.580Z,6.99
2023-11-23T15:13:07.232Z,7.08
2023-11-23T15:15:09.175Z,7.12
2023-11-23T15:17:10.741Z,6.98
2023-11-23T15:19:12.226Z,7.26
2023-11-23T15:21:13.705Z,7.33
2023-11-23T15:23:15.241Z,7.33
2023-11-23T15:25:16.881Z,7.47
2023-11-23T15:27:18.746Z,7.54
2023-11-23T15:29:20.326Z,7.48
2023-11-23T15:31:21.857Z,7.44
2023-11-23T15:33:24.016Z,7.56
2023-11-23T15:35:25.570Z,7.51
2023-11-23T15:37:27.019Z,7.50
2023-11-23T15:39:30.182Z,7.51
2023-11-23T15:41:31.958Z,7.55
2023-11-23T15:43:33.502Z,7.61
2023-11-23T15:45:35.365Z,7.83
2023-11-23T15:47:36.948Z,7.87
2023-11-23T15:49:38.579Z,7.86
2023-11-23T15:51:40.200Z,7.83
2023-11-23T15:53:41.731Z,7.80
2023-11-23T15:55:43.153Z,7.99
2023-11-23T15:57:44.866Z,8.03
2023-11-23T15:59:46.502Z,8.07
2023-11-23T16:01:48.015Z,8.10
2023-11-23T16:03:49.689Z,8.11
2023-11-23T16:05:51.309Z,8.12
2023-11-23T16:07:53.663Z,8.18
2023-11-23T16:09:55.438Z,8.26
2023-11-23T16:11:56.988Z,8.27
2023-11-23T16:13:58.422Z,8.26
2023-11-23T16:16:00.048Z,8.28
2023-11-23T16:18:01.775Z,8.33
2023-11-23T16:20:03.406Z,8.30
2023-11-23T16:22:04.916Z,8.46
2023-11-23T16:24:09.863Z,8.44
2023-11-23T16:26:11.322Z,8.52
2023-11-23T16:28:12.854Z,8.54
2023-11-23T16:30:15.362Z,8.54
2023-11-23T16:32:17.016Z,8.57
2023-11-23T16:34:18.938Z,8.57
2023-11-23T16:36:30.229Z,8.63
2023-11-23T16:38:38.349Z,8.59
2023-11-23T16:40:39.868Z,8.57
2023-11-23T16:42:43.035Z,8.72
2023-11-23T16:44:44.845Z,8.67
2023-11-23T16:46:46.795Z,8.63
2023-11-23T16:48:48.453Z,8.71
2023-11-23T16:50:50.169Z,8.82
2023-11-23T16:52:51.712Z,8.81
2023-11-23T16:54:53.267Z,8.83
2023-11-23T16:56:54.707Z,8.83
2023-11-23T16:58:56.345Z,8.70
2023-11-23T17:00:58.083Z,8.75
2023-11-23T17:02:59.971Z,8.87
2023-11-23T17:05:01.877Z,8.75
2023-11-23T17:07:03.834Z,8.88
2023-11-23T17:09:05.312Z,8.91
2023-11-23T17:11:06.769Z,8.91
2023-11-23T17:13:08.727Z,8.93
2023-11-23T17:15:10.547Z,9.04
2023-11-23T17:17:12.239Z,8.93
2023-11-23T17:19:14.362Z,8.86
2023-11-23T17:21:15.895Z,8.92
2023-11-23T17:23:17.321Z,9.09
2023-11-23T17:25:19.085Z,8.92
2023-11-23T17:27:20.603Z,9.08
2023-11-23T17:29:22.048Z,8.97
2023-11-23T17:31:23.813Z,8.74
2023-11-23T17:33:25.295Z,8.94
2023-11-23T17:35:27.013Z,8.89
2023-11-23T17:37:28.731Z,8.90
2023-11-23T17:39:30.369Z,8.91
2023-11-23T17:41:31.840Z,8.86
2023-11-23T17:43:33.621Z,8.81
2023-11-23T17:45:35.084Z,8.87
2023-11-23T17:47:36.661Z,8.86
2023-11-23T17:49:38.750Z,8.86
2023-11-23T17:51:40.525Z,8.96
2023-11-23T17:53:41.970Z,8.91
2023-11-23T17:55:43.769Z,8.88
2023-11-23T17:57:45.303Z,8.88
2023-11-23T17:59:49.940Z,8.94
2023-11-23T18:01:52.913Z,8.71
2023-11-23T18:03:54.840Z,8.81
2023-11-23T18:05:56.417Z,8.77
2023-11-23T18:08:01.066Z,8.78
2023-11-23T18:10:02.568Z,8.85
2023-11-23T18:12:04.230Z,8.80
2023-11-23T18:14:05.975Z,8.75
2023-11-23T18:16:07.706Z,8.71
2023-11-23T18:18:15.400Z,8.75
2023-11-23T18:20:23.737Z,8.63
2023-11-23T18:22:25.193Z,8.73
2023-11-23T18:24:26.668Z,8.72
2023-11-23T18:26:28.331Z,8.74
2023-11-23T18:28:29.785Z,8.83
2023-11-23T18:30:31.569Z,8.77
2023-11-23T18:32:33.467Z,8.93
2023-11-23T18:34:35.179Z,8.87
2023-11-23T18:36:36.947Z,8.89
2023-11-23T18:38:38.983Z,8.77
2023-11-23T18:40:40.988Z,8.98
2023-11-23T18:42:43.631Z,9.06
2023-11-23T18:44:45.383Z,9.03
2023-11-23T18:46:46.970Z,9.10
2023-11-23T18:48:48.556Z,8.97
2023-11-23T18:50:50.170Z,8.99
2023-11-23T18:52:51.685Z,9.12
2023-11-23T18:54:53.198Z,9.07
2023-11-23T18:56:54.790Z,9.18
2023-11-23T18:58:56.366Z,9.18
2023-11-23T19:00:57.919Z,9.25
2023-11-23T19:02:59.625Z,9.37
2023-11-23T19:05:01.277Z,9.24
2023-11-23T19:07:02.776Z,9.41
2023-11-23T19:09:04.637Z,9.47
2023-11-23T19:11:06.415Z,9.57
2023-11-23T19:13:07.890Z,9.55
2023-11-23T19:15:09.981Z,9.61
2023-11-23T19:17:11.624Z,9.68
2023-11-23T19:19:13.297Z,9.74
2023-11-23T19:21:17.744Z,9.54
2023-11-23T19:23:19.485Z,9.41
2023-11-23T19:25:22.471Z,9.42
2023-11-23T19:27:25.442Z,9.31
2023-11-23T19:29:35.456Z,9.33
2023-11-23T19:31:47.604Z,9.02
2023-11-23T19:33:49.477Z,8.84
2023-11-23T19:35:51.211Z,8.43
2023-11-23T19:37:52.878Z,8.30
2023-11-23T19:39:54.661Z,8.11
2023-11-23T19:41:59.067Z,8.36
2023-11-23T19:44:00.728Z,8.11
2023-11-23T19:46:02.624Z,8.24
2023-11-23T19:48:04.515Z,8.08
2023-11-23T19:50:06.714Z,7.88
2023-11-23T19:52:15.700Z,7.94
2023-11-23T19:54:18.298Z,7.83
2023-11-23T19:56:21.931Z,7.79
2023-11-23T19:58:24.969Z,7.71
2023-11-23T20:00:26.776Z,7.81
2023-11-23T20:02:28.283Z,7.75
2023-11-23T20:04:30.050Z,7.67
2023-11-23T20:06:31.690Z,7.65
2023-11-23T20:08:33.802Z,7.72
2023-11-23T20:10:35.428Z,7.71
2023-11-23T20:12:36.974Z,7.71
2023-11-23T20:14:38.427Z,7.59
2023-11-23T20:16:40.048Z,7.13
2023-11-23T20:18:41.666Z,7.32
2023-11-23T20:20:43.131Z,7.45
2023-11-23T20:22:44.706Z,7.22
2023-11-23T20:24:46.246Z,7.38
2023-11-23T20:26:47.675Z,7.25
2023-11-23T20:28:49.226Z,7.42
2023-11-23T20:30:50.775Z,7.51
2023-11-23T20:32:52.357Z,7.37
2023-11-23T20:34:54.029Z,7.46
2023-11-23T20:36:55.671Z,7.35
2023-11-23T20:38:57.382Z,7.45
2023-11-23T20:40:58.937Z,7.27
2023-11-23T20:43:00.379Z,7.39
2023-11-23T20:45:01.842Z,7.45
2023-11-23T20:47:03.375Z,7.35
2023-11-23T20:49:04.996Z,7.46
2023-11-23T20:51:06.516Z,7.41
2023-11-23T20:53:08.067Z,7.30
2023-11-23T20:55:10.745Z,7.26
2023-11-23T20:57:12.804Z,7.29
2023-11-23T20:59:14.565Z,7.23
2023-11-23T21:01:16.915Z,7.30
2023-11-23T21:03:18.873Z,7.13
2023-11-23T21:05:21.039Z,6.95
2023-11-23T21:07:22.828Z,6.97
2023-11-23T21:09:24.509Z,6.89
2023-11-23T21:11:26.051Z,6.84
2023-11-23T21:13:27.699Z,6.81
2023-11-23T21:15:30.517Z,6.71
2023-11-23T21:17:32.385Z,6.64
2023-11-23T21:19:36.335Z,6.68
2023-11-23T21:21:42.065Z,6.82
2023-11-23T21:23:43.609Z,6.85
2023-11-23T21:25:45.158Z,6.81
2023-11-23T21:27:46.652Z,6.82
2023-11-23T21:29:48.633Z,6.78
2023-11-23T21:31:50.335Z,6.70
2023-11-23T21:33:52.842Z,6.71
2023-11-23T21:35:54.466Z,6.81
2023-11-23T21:37:56.040Z,6.65
2023-11-23T21:39:57.958Z,6.96
2023-11-23T21:42:00.804Z,6.86
2023-11-23T21:44:02.364Z,6.73
2023-11-23T21:46:03.917Z,6.67
2023-11-23T21:48:05.830Z,6.58
2023-11-23T21:50:08.120Z,6.44
2023-11-23T21:52:10.624Z,6.53
2023-11-23T21:54:12.381Z,6.70
2023-11-23T21:56:13.978Z,6.67
2023-11-23T21:58:15.417Z,6.66
2023-11-23T22:00:17.183Z,6.67
2023-11-23T22:02:18.786Z,6.56
2023-11-23T22:04:20.522Z,6.55
2023-11-23T22:06:22.157Z,6.64
2023-11-23T22:08:23.846Z,6.68
2023-11-23T22:10:25.293Z,6.61
2023-11-23T22:12:27.048Z,6.72
2023-11-23T22:14:28.599Z,6.61
2023-11-23T22:16:30.257Z,6.59
2023-11-23T22:18:32.373Z,6.55
2023-11-23T22:20:34.097Z,6.56
2023-11-23T22:22:35.953Z,6.42
2023-11-23T22:24:37.710Z,6.37
2023-11-23T22:26:39.577Z,6.45
2023-11-23T22:28:41.530Z,6.57
2023-11-23T22:30:43.469Z,6.55
2023-11-23T22:32:45.514Z,6.34
2023-11-23T22:34:47.214Z,6.45
2023-11-23T22:36:49.024Z,6.34
2023-11-23T22:38:50.723Z,6.42
2023-11-23T22:40:52.400Z,6.24
2023-11-23T22:42:54.330Z,6.35
2023-11-23T22:44:56.077Z,6.48
2023-11-23T22:46:57.892Z,6.57
2023-11-23T22:48:59.665Z,6.38
2023-11-23T22:51:01.199Z,6.38
2023-11-23T22:53:02.635Z,6.50
2023-11-23T22:55:04.708Z,6.57
2023-11-23T22:57:06.530Z,6.59
2023-11-23T22:59:07.973Z,6.49
2023-11-23T23:01:09.777Z,6.48
2023-11-23T23:03:11.368Z,6.51
2023-11-23T23:05:12.904Z,6.55
2023-11-23T23:07:14.656Z,6.41
2023-11-23T23:09:16.098Z,6.54
2023-11-23T23:11:17.550Z,6.53
2023-11-23T23:13:19.388Z,6.60
2023-11-23T23:15:21.967Z,6.60
2023-11-23T23:17:23.427Z,6.53
2023-11-23T23:19:25.115Z,6.58
2023-11-23T23:21:26.569Z,6.50
2023-11-23T23:23:28.072Z,6.48
2023-11-23T23:25:29.691Z,6.51
2023-11-23T23:27:31.446Z,6.42
2023-11-23T23:29:32.971Z,6.49
2023-11-23T23:31:34.954Z,6.30
2023-11-23T23:33:36.540Z,6.48
2023-11-23T23:35:38.003Z,6.29
2023-11-23T23:37:40.004Z,6.37
2023-11-23T23:39:41.487Z,6.44
2023-11-23T23:41:42.987Z,6.31
2023-11-23T23:43:45.532Z,6.25
2023-11-23T23:45:47.092Z,6.36
2023-11-23T23:47:48.545Z,6.18
2023-11-23T23:49:50.578Z,6.04
2023-11-23T23:51:52.086Z,6.37
2023-11-23T23:53:53.526Z,6.07
2023-11-23T23:55:55.212Z,6.17
2023-11-23T23:57:56.672Z,6.11
2023-11-23T23:59:58.487Z,6.20
